Time;durP1;ratioP1;P1;durP2;ratioP2;P2;SDS_P1;SDS_P2;PMS_P1;PMS_P2;Temp;Humidity;BMP_temperature;BMP_pressure;BME280_temperature;BME280_humidity;BME280_pressure;Samples;Min_cycle;Max_cycle;Signal;HPM_P1;HPM_P2
2022/12/08 00:00:46;;;;;;;;;;;;;;;27.85;25.56;100670.75;5010816;28;1131;-28
2022/12/08 00:03:12;;;;;;;;;;;;;;;27.32;25.97;100672.56;5007753;28;2546;-26
2022/12/08 00:11:05;;;;;;;;;;;;;;;28.04;25.36;100671.16;5016714;28;1061;-27
2022/12/08 00:13:30;;;;;;;;;;;;;;;27.69;25.38;100661.84;5005658;28;1305;-28
2022/12/08 00:15:59;;;;;;;;;;;;;;;27.26;25.85;100667.88;5016773;28;1168;-25
2022/12/08 00:18:24;;;;;;;;;;;;;;;27.41;26.23;100673.28;5016627;28;1148;-25
2022/12/08 00:20:54;;;;;;;;;;;;;;;27.53;25.85;100670.13;5016904;28;1211;-27
2022/12/08 00:23:19;;;;;;;;;;;;;;;27.25;26.01;100667.06;5016736;28;1212;-26
2022/12/08 00:25:44;;;;;;;;;;;;;;;27.25;26.31;100658.94;5016628;28;953;-25
2022/12/08 00:28:09;;;;;;;;;;;;;;;27.67;25.73;100671.13;5016704;28;1981;-25
2022/12/08 00:30:35;;;;;;;;;;;;;;;28.04;25.27;100657.63;5016993;28;1206;-25
2022/12/08 00:33:00;;;;;;;;;;;;;;;28.01;25.33;100658.84;5002754;28;1823;-25
2022/12/08 00:35:25;;;;;;;;;;;;;;;27.43;25.81;100663.13;5016236;28;1156;-27
2022/12/08 00:37:51;;;;;;;;;;;;;;;27.26;25.78;100657.91;5002541;28;1049;-27
2022/12/08 00:40:16;;;;;;;;;;;;;;;27.57;25.96;100669.56;5016360;28;1124;-26
2022/12/08 00:42:41;;;;;;;;;;;;;;;27.85;25.80;100659.94;5016341;28;1163;-26
2022/12/08 00:45:07;;;;;;;;;;;;;;;27.68;25.29;100668.25;5016171;28;1171;-26
2022/12/08 00:47:32;;;;;;;;;;;;;;;27.23;25.80;100668.25;5016538;28;1203;-24
2022/12/08 00:49:57;;;;;;;;;;;;;;;27.50;26.20;100677.56;5016008;28;1894;-26
2022/12/08 00:52:22;;;;;;;;;;;;;;;27.97;25.35;100682.75;5015642;28;1092;-26
2022/12/08 00:54:48;;;;;;;;;;;;;;;28.20;25.06;100683.59;5016549;28;1160;-25
2022/12/08 00:57:13;;;;;;;;;;;;;;;27.56;25.55;100680.56;5002787;28;1184;-27
2022/12/08 00:59:38;;;;;;;;;;;;;;;27.34;26.12;100692.09;5016106;28;1144;-28
2022/12/08 01:02:04;;;;;;;;;;;;;;;28.01;25.51;100690.47;5005252;28;1893;-26
2022/12/08 01:04:29;;;;;;;;;;;;;;;28.32;25.16;100684.78;5016753;28;1112;-31
2022/12/08 01:06:54;;;;;;;;;;;;;;;28.29;24.46;100677.03;5016165;28;1072;-26
2022/12/08 01:09:19;;;;;;;;;;;;;;;27.56;25.66;100673.25;5016171;28;1898;-25
2022/12/08 01:11:45;;;;;;;;;;;;;;;27.46;26.04;100665.44;5016276;28;1171;-25
2022/12/08 01:14:10;;;;;;;;;;;;;;;28.09;25.33;100674.13;5015904;28;1000;-24
2022/12/08 01:16:36;;;;;;;;;;;;;;;28.31;25.13;100668.75;5020075;28;1273;-28
2022/12/08 01:19:01;;;;;;;;;;;;;;;28.40;24.83;100673.00;5019779;28;1084;-25
2022/12/08 01:21:26;;;;;;;;;;;;;;;27.61;25.03;100664.63;5020002;28;1171;-24
2022/12/08 01:23:52;;;;;;;;;;;;;;;27.56;25.71;100672.44;5019239;28;1418;-28
2022/12/08 01:26:17;;;;;;;;;;;;;;;28.07;25.17;100677.03;5019684;28;1203;-27
2022/12/08 01:28:43;;;;;;;;;;;;;;;28.52;24.75;100672.47;5020266;28;1969;-26
2022/12/08 01:31:12;;;;;;;;;;;;;;;27.90;24.86;100676.41;5019598;28;1295;-25
2022/12/08 01:33:37;;;;;;;;;;;;;;;27.51;25.72;100672.97;5019939;28;1096;-25
2022/12/08 01:36:04;;;;;;;;;;;;;;;27.99;25.66;100669.03;5019480;28;1179;-25
2022/12/08 01:38:29;;;;;;;;;;;;;;;28.34;25.53;100663.78;5005730;28;1069;-25
2022/12/08 01:40:54;;;;;;;;;;;;;;;28.38;25.09;100658.84;5019574;28;1109;-25
2022/12/08 01:43:20;;;;;;;;;;;;;;;27.83;24.99;100657.41;5019535;28;1143;-27
2022/12/08 01:45:45;;;;;;;;;;;;;;;27.53;26.17;100660.13;5019352;28;1179;-27
2022/12/08 01:48:13;;;;;;;;;;;;;;;28.07;25.67;100658.09;5019724;28;1902;-25
2022/12/08 01:50:38;;;;;;;;;;;;;;;28.43;25.69;100656.38;5018400;28;1187;-26
2022/12/08 01:53:08;;;;;;;;;;;;;;;28.47;24.66;100663.09;5018180;28;1116;-26
2022/12/08 01:55:43;;;;;;;;;;;;;;;27.66;25.32;100656.75;5005726;28;1113;-25
2022/12/08 01:58:12;;;;;;;;;;;;;;;27.80;26.30;100657.78;5019449;28;1160;-26
2022/12/08 02:00:37;;;;;;;;;;;;;;;27.96;25.53;100661.31;5018266;28;1093;-25
2022/12/08 02:03:04;;;;;;;;;;;;;;;27.49;26.13;100659.66;5019543;28;2687;-26
2022/12/08 02:05:30;;;;;;;;;;;;;;;27.62;26.67;100655.47;5017559;28;1204;-25
2022/12/08 02:07:56;;;;;;;;;;;;;;;28.13;26.60;100653.78;5019233;28;1175;-26
2022/12/08 02:10:21;;;;;;;;;;;;;;;27.70;25.42;100657.25;5019297;28;1969;-28
2022/12/08 02:12:47;;;;;;;;;;;;;;;27.41;26.08;100654.38;5019027;28;1124;-24
2022/12/08 02:15:12;;;;;;;;;;;;;;;27.97;26.74;100655.72;5017271;28;1223;-28
2022/12/08 02:17:38;;;;;;;;;;;;;;;28.34;26.31;100661.06;5018846;28;1096;-27
2022/12/08 02:20:12;;;;;;;;;;;;;;;28.40;26.18;100661.34;5019425;28;1215;-29
2022/12/08 02:22:37;;;;;;;;;;;;;;;28.56;26.30;100665.66;5019254;28;1128;-27
2022/12/08 02:25:11;;;;;;;;;;;;;;;28.20;26.67;100662.81;5012247;28;1299;-25
2022/12/08 02:27:36;;;;;;;;;;;;;;;28.30;26.59;100658.94;5012844;28;1069;-27
2022/12/08 02:30:04;;;;;;;;;;;;;;;27.93;26.00;100656.25;5018373;28;1910;-24
2022/12/08 02:32:29;;;;;;;;;;;;;;;27.84;26.14;100659.06;5008441;28;2299;-25
2022/12/08 02:35:13;;;;;;;;;;;;;;;28.21;26.54;100666.34;5017272;28;1148;-26
2022/12/08 02:37:51;;;;;;;;;;;;;;;27.86;25.58;100672.44;5018136;28;1108;-25
2022/12/08 02:40:18;;;;;;;;;;;;;;;27.71;26.89;100680.56;5005308;28;1101;-25
2022/12/08 02:42:49;;;;;;;;;;;;;;;28.30;26.43;100672.47;5018277;28;1143;-25
2022/12/08 02:45:20;;;;;;;;;;;;;;;28.56;26.11;100673.78;5018472;28;1331;-24
2022/12/08 02:47:45;;;;;;;;;;;;;;;28.69;26.15;100683.88;5017185;28;1191;-26
2022/12/08 02:50:11;;;;;;;;;;;;;;;28.59;26.02;100681.50;5018088;28;1906;-25
2022/12/08 02:52:40;;;;;;;;;;;;;;;28.40;26.46;100686.53;5018403;28;1096;-25
2022/12/08 02:55:07;;;;;;;;;;;;;;;28.41;26.51;100681.97;5018112;28;1164;-26
2022/12/08 02:57:32;;;;;;;;;;;;;;;28.08;25.75;100684.09;5018066;28;1116;-25
2022/12/08 03:00:09;;;;;;;;;;;;;;;27.93;25.99;100672.47;5018157;28;1128;-25
2022/12/08 03:02:34;;;;;;;;;;;;;;;28.30;25.52;100667.91;5017759;28;2358;-26
2022/12/08 03:05:06;;;;;;;;;;;;;;;27.87;25.76;100664.13;5018246;28;1124;-26
2022/12/08 03:07:32;;;;;;;;;;;;;;;28.26;26.75;100666.59;5017840;28;1163;-27
2022/12/08 03:10:06;;;;;;;;;;;;;;;28.56;26.19;100674.59;5017852;28;1969;-25
2022/12/08 03:12:47;;;;;;;;;;;;;;;28.64;25.94;100672.81;5004213;28;1081;-24
2022/12/08 03:15:13;;;;;;;;;;;;;;;28.83;26.19;100690.22;5010614;28;1276;-30
2022/12/08 03:17:40;;;;;;;;;;;;;;;28.05;25.39;100689.91;5017979;28;1144;-27
2022/12/08 03:20:07;;;;;;;;;;;;;;;27.93;26.66;100689.56;5016619;28;1212;-26
2022/12/08 03:22:32;;;;;;;;;;;;;;;28.52;26.27;100692.28;5016701;28;1109;-25
2022/12/08 03:24:57;;;;;;;;;;;;;;;28.65;26.20;100694.25;5016486;28;1129;-25
2022/12/08 03:27:23;;;;;;;;;;;;;;;28.81;25.66;100695.84;5016192;28;1187;-27
2022/12/08 03:29:51;;;;;;;;;;;;;;;28.73;25.86;100699.53;5017711;28;1979;-27
2022/12/08 03:32:21;;;;;;;;;;;;;;;28.35;26.46;100700.66;5016493;28;1696;-27
2022/12/08 03:34:47;;;;;;;;;;;;;;;28.38;25.36;100699.41;5016557;28;1238;-26
2022/12/08 03:37:12;;;;;;;;;;;;;;;27.93;25.70;100692.25;5012445;28;1156;-24
2022/12/08 03:39:37;;;;;;;;;;;;;;;28.10;26.45;100692.03;5012378;28;1121;-26
2022/12/08 03:42:03;;;;;;;;;;;;;;;28.66;25.82;100692.41;5017302;28;1132;-26
2022/12/08 03:44:28;;;;;;;;;;;;;;;28.04;25.23;100690.94;5017272;28;1139;-25
2022/12/08 03:46:53;;;;;;;;;;;;;;;27.96;26.26;100699.16;5017484;28;1092;-26
2022/12/08 03:49:18;;;;;;;;;;;;;;;28.47;26.32;100703.69;5016328;28;1963;-24
2022/12/08 03:51:44;;;;;;;;;;;;;;;28.54;26.19;100700.19;5003586;28;1183;-26
2022/12/08 03:54:09;;;;;;;;;;;;;;;28.73;26.03;100713.06;5017020;28;1176;-27
2022/12/08 03:56:35;;;;;;;;;;;;;;;28.74;25.95;100708.50;5017257;28;1223;-27
2022/12/08 03:59:00;;;;;;;;;;;;;;;28.50;26.19;100712.41;5017232;28;1187;-24
2022/12/08 04:01:26;;;;;;;;;;;;;;;28.50;26.27;100710.56;5016674;28;2370;-28
2022/12/08 04:03:51;;;;;;;;;;;;;;;28.60;25.81;100721.91;5016775;28;1128;-25
2022/12/08 04:06:16;;;;;;;;;;;;;;;28.22;25.76;100712.16;5017207;28;1180;-25
2022/12/08 04:08:42;;;;;;;;;;;;;;;27.88;25.51;100721.72;5016646;28;1961;-25
2022/12/08 04:11:07;;;;;;;;;;;;;;;28.40;26.02;100715.44;5017027;28;1152;-24
2022/12/08 04:13:33;;;;;;;;;;;;;;;27.86;25.92;100721.09;5013971;28;1108;-25
2022/12/08 04:15:58;;;;;;;;;;;;;;;27.83;25.94;100718.75;5016525;28;1224;-25
2022/12/08 04:18:23;;;;;;;;;;;;;;;28.28;25.43;100721.34;5016742;28;1085;-26
2022/12/08 04:20:49;;;;;;;;;;;;;;;28.42;25.11;100718.81;5016918;28;1179;-25
2022/12/08 04:23:14;;;;;;;;;;;;;;;28.54;25.60;100719.97;5017372;28;1120;-26
2022/12/08 04:25:39;;;;;;;;;;;;;;;28.70;25.59;100721.56;5016261;28;1144;-24
2022/12/08 04:28:05;;;;;;;;;;;;;;;28.39;26.77;100714.63;5002501;28;1965;-26
2022/12/08 04:30:30;;;;;;;;;;;;;;;28.52;26.51;100719.34;5012878;28;1447;-24
2022/12/08 04:32:55;;;;;;;;;;;;;;;28.42;26.54;100721.50;5003628;28;1795;-28
2022/12/08 04:35:21;;;;;;;;;;;;;;;27.98;26.52;100713.31;5016342;28;1116;-23
2022/12/08 04:37:46;;;;;;;;;;;;;;;28.13;27.09;100715.16;5016563;28;1187;-25
2022/12/08 04:40:11;;;;;;;;;;;;;;;27.85;26.50;100714.84;5002503;28;1143;-24
2022/12/08 04:42:37;;;;;;;;;;;;;;;27.57;27.35;100714.66;5016595;28;1215;-25
2022/12/08 04:45:02;;;;;;;;;;;;;;;28.05;27.10;100722.34;5016052;28;1210;-27
2022/12/08 04:47:27;;;;;;;;;;;;;;;28.02;26.81;100730.84;5016494;28;1195;-23
2022/12/08 04:49:53;;;;;;;;;;;;;;;26.59;22.67;100727.84;5014227;28;1910;-23
2022/12/08 04:52:18;;;;;;;;;;;;;;;25.12;28.32;100730.78;5003778;28;1093;-24
2022/12/08 04:54:43;;;;;;;;;;;;;;;26.94;25.34;100734.66;5016457;28;1120;-24
2022/12/08 04:57:08;;;;;;;;;;;;;;;27.66;23.45;100742.41;5016146;28;1148;-25
2022/12/08 04:59:34;;;;;;;;;;;;;;;27.92;22.63;100738.41;5016155;28;1109;-25
2022/12/08 05:01:59;;;;;;;;;;;;;;;28.08;22.42;100743.59;5010416;28;2451;-27
2022/12/08 05:04:25;;;;;;;;;;;;;;;28.14;22.76;100757.38;5004996;28;1093;-27
2022/12/08 05:06:50;;;;;;;;;;;;;;;28.33;23.35;100755.97;5016508;28;1092;-27
2022/12/08 05:09:15;;;;;;;;;;;;;;;28.42;23.57;100752.13;5015943;28;1965;-29
2022/12/08 05:11:40;;;;;;;;;;;;;;;28.63;23.88;100760.44;5016211;28;1112;-28
2022/12/08 05:14:15;;;;;;;;;;;;;;;28.65;23.68;100755.66;5015634;28;1195;-27
2022/12/08 05:16:40;;;;;;;;;;;;;;;27.65;24.87;100755.06;5016021;28;1205;-25
2022/12/08 05:19:06;;;;;;;;;;;;;;;27.75;25.08;100757.53;5016461;28;1151;-29
2022/12/08 05:21:31;;;;;;;;;;;;;;;27.70;25.15;100757.25;5015950;28;1089;-30
2022/12/08 05:23:56;;;;;;;;;;;;;;;27.28;25.88;100752.25;5020278;28;1137;-26
2022/12/08 05:26:21;;;;;;;;;;;;;;;27.51;25.41;100756.75;5017202;28;1202;-26
2022/12/08 05:28:47;;;;;;;;;;;;;;;27.80;25.11;100754.25;5016018;28;1902;-28
2022/12/08 05:31:12;;;;;;;;;;;;;;;27.61;25.57;100770.81;5015763;28;1822;-28
2022/12/08 05:33:38;;;;;;;;;;;;;;;27.70;25.61;100760.78;5004000;28;1105;-31
2022/12/08 05:36:03;;;;;;;;;;;;;;;27.94;25.10;100775.06;5016047;28;1152;-28
2022/12/08 05:38:28;;;;;;;;;;;;;;;27.87;25.20;100774.13;5015707;28;1160;-25
2022/12/08 05:40:54;;;;;;;;;;;;;;;27.42;26.11;100785.72;5015724;28;1127;-26
2022/12/08 05:43:19;;;;;;;;;;;;;;;27.47;26.10;100783.31;5015837;28;1108;-26
2022/12/08 05:45:44;;;;;;;;;;;;;;;27.53;25.83;100789.00;5015730;28;1144;-27
2022/12/08 05:48:09;;;;;;;;;;;;;;;27.49;26.17;100791.22;5015494;28;1890;-25
2022/12/08 05:50:35;;;;;;;;;;;;;;;27.46;26.05;100794.31;5015803;28;1207;-26
2022/12/08 05:53:00;;;;;;;;;;;;;;;27.33;26.26;100803.00;5015669;28;1092;-26
2022/12/08 05:55:25;;;;;;;;;;;;;;;27.21;26.28;100798.06;5015755;28;1117;-27
2022/12/08 05:57:51;;;;;;;;;;;;;;;26.99;26.35;100805.16;5015599;28;1148;-27
2022/12/08 06:00:17;;;;;;;;;;;;;;;27.49;26.06;100810.13;5016152;28;1156;-31
2022/12/08 06:02:42;;;;;;;;;;;;;;;27.58;26.04;100805.47;5015490;28;2758;-30
2022/12/08 06:05:07;;;;;;;;;;;;;;;27.65;25.68;100814.53;5019312;28;982;-27
2022/12/08 06:07:32;;;;;;;;;;;;;;;27.35;25.90;100819.88;5019060;28;1077;-28
2022/12/08 06:09:58;;;;;;;;;;;;;;;27.01;26.61;100820.16;5017972;28;1894;-31
2022/12/08 06:12:23;;;;;;;;;;;;;;;27.33;26.43;100816.53;5019430;28;1223;-28
2022/12/08 06:14:48;;;;;;;;;;;;;;;27.62;26.21;100823.00;5013345;28;1192;-29
2022/12/08 06:17:14;;;;;;;;;;;;;;;27.56;26.34;100834.56;5015983;28;1252;-31
2022/12/08 06:19:39;;;;;;;;;;;;;;;27.58;25.84;100827.09;5019617;28;1160;-27
2022/12/08 06:22:04;;;;;;;;;;;;;;;27.14;26.10;100830.34;5019825;28;1211;-32
2022/12/08 06:24:30;;;;;;;;;;;;;;;26.97;26.66;100832.31;5018849;28;1152;-28
2022/12/08 06:26:55;;;;;;;;;;;;;;;27.48;26.03;100836.31;5013147;28;1151;-29
2022/12/08 06:29:20;;;;;;;;;;;;;;;27.53;26.21;100832.22;5014167;28;1910;-30
2022/12/08 06:31:45;;;;;;;;;;;;;;;27.64;25.93;100829.06;5019334;28;1155;-29
2022/12/08 06:34:11;;;;;;;;;;;;;;;27.33;25.90;100822.78;5018964;28;1215;-29
2022/12/08 06:36:36;;;;;;;;;;;;;;;26.92;26.82;100821.22;5019072;28;1144;-28
2022/12/08 06:39:01;;;;;;;;;;;;;;;27.28;26.30;100824.34;5012949;28;1113;-30
2022/12/08 06:41:27;;;;;;;;;;;;;;;27.43;25.75;100827.91;5014903;28;1112;-31
2022/12/08 06:43:54;;;;;;;;;;;;;;;27.02;26.58;100829.97;5018880;28;1223;-30
2022/12/08 06:46:19;;;;;;;;;;;;;;;26.94;26.65;100831.84;5018890;28;1132;-29
2022/12/08 06:48:45;;;;;;;;;;;;;;;27.46;26.21;100835.66;5019149;28;1894;-28
2022/12/08 06:51:14;;;;;;;;;;;;;;;27.47;25.93;100841.91;5012601;28;1144;-29
2022/12/08 06:53:39;;;;;;;;;;;;;;;27.41;26.08;100832.66;5017280;28;1152;-26
2022/12/08 06:56:05;;;;;;;;;;;;;;;27.34;26.14;100839.81;5017794;28;1006;-30
2022/12/08 06:58:30;;;;;;;;;;;;;;;26.90;26.33;100836.75;5018325;28;1144;-30
2022/12/08 07:00:55;;;;;;;;;;;;;;;27.19;26.41;100846.03;5018921;28;1152;-30
2022/12/08 07:03:21;;;;;;;;;;;;;;;27.41;26.22;100840.75;5011801;28;1160;-27
2022/12/08 07:05:46;;;;;;;;;;;;;;;27.62;25.99;100850.03;5018335;28;1156;-30
2022/12/08 07:08:11;;;;;;;;;;;;;;;27.39;26.12;100851.75;5018814;28;1886;-29
2022/12/08 07:10:37;;;;;;;;;;;;;;;27.23;26.04;100852.72;5018056;28;1144;-27
2022/12/08 07:13:02;;;;;;;;;;;;;;;27.61;26.04;100853.78;5017123;28;1380;-28
2022/12/08 07:15:27;;;;;;;;;;;;;;;27.74;25.89;100835.06;5017741;28;1235;-29
2022/12/08 07:17:53;;;;;;;;;;;;;;;27.89;25.79;100833.41;5011004;28;1120;-27
2022/12/08 07:20:18;;;;;;;;;;;;;;;27.48;26.14;100830.06;4998946;28;1128;-27
2022/12/08 07:22:47;;;;;;;;;;;;;;;27.45;26.25;100849.34;4999085;28;1124;-28
2022/12/08 07:25:12;;;;;;;;;;;;;;;27.70;26.38;100851.84;5006851;28;1152;-29
2022/12/08 07:27:37;;;;;;;;;;;;;;;27.56;26.13;100845.38;5010271;28;1222;-30
2022/12/08 07:30:03;;;;;;;;;;;;;;;27.47;26.42;100837.34;5017859;28;1910;-28
2022/12/08 07:32:28;;;;;;;;;;;;;;;27.91;25.89;100844.88;5017784;28;1164;-29
2022/12/08 07:34:54;;;;;;;;;;;;;;;27.91;25.77;100852.97;5018156;28;1180;-29
2022/12/08 07:37:19;;;;;;;;;;;;;;;28.00;25.72;100859.97;5017984;28;1187;-30
2022/12/08 07:39:45;;;;;;;;;;;;;;;27.52;26.09;100855.69;5011246;28;1217;-28
2022/12/08 07:42:10;;;;;;;;;;;;;;;27.56;26.43;100857.00;5017631;28;1148;-27
2022/12/08 07:44:35;;;;;;;;;;;;;;;27.95;25.97;100860.53;5023966;28;1163;-29
2022/12/08 07:47:01;;;;;;;;;;;;;;;28.06;25.68;100861.91;5017242;28;1030;-31
2022/12/08 07:49:26;;;;;;;;;;;;;;;28.13;25.37;100858.50;5017513;28;1957;-29
2022/12/08 07:51:51;;;;;;;;;;;;;;;27.73;25.67;100846.91;5013036;28;1231;-31
2022/12/08 07:54:16;;;;;;;;;;;;;;;27.79;26.13;100845.34;5017670;28;1113;-26
2022/12/08 07:56:42;;;;;;;;;;;;;;;28.09;26.07;100845.31;5017591;28;1141;-30
2022/12/08 07:59:07;;;;;;;;;;;;;;;28.23;25.72;100848.19;5017727;28;1191;-27
2022/12/08 08:01:32;;;;;;;;;;;;;;;28.16;25.76;100855.41;5017619;28;1152;-27
2022/12/08 08:04:00;;;;;;;;;;;;;;;27.98;26.53;100865.56;5014325;28;1184;-29
2022/12/08 08:06:25;;;;;;;;;;;;;;;28.17;25.83;100876.84;5017316;28;1210;-27
2022/12/08 08:08:51;;;;;;;;;;;;;;;28.28;25.58;100891.75;5017589;28;1955;-27
2022/12/08 08:11:16;;;;;;;;;;;;;;;28.41;25.56;100882.19;5017359;28;1183;-27
2022/12/08 08:13:41;;;;;;;;;;;;;;;27.91;25.48;100885.44;5017522;28;1105;-27
2022/12/08 08:16:07;;;;;;;;;;;;;;;27.79;25.72;100883.19;5016838;28;1090;-29
2022/12/08 08:18:33;;;;;;;;;;;;;;;28.34;25.68;100888.31;5017134;28;1160;-29
2022/12/08 08:20:58;;;;;;;;;;;;;;;28.34;25.85;100887.50;5016968;28;1227;-32
2022/12/08 08:23:23;;;;;;;;;;;;;;;28.20;25.47;100895.41;5017050;28;1132;-32
2022/12/08 08:25:49;;;;;;;;;;;;;;;27.78;25.71;100891.47;5016831;28;933;-27
2022/12/08 08:28:14;;;;;;;;;;;;;;;27.94;26.11;100899.41;5016442;28;1902;-27
2022/12/08 08:30:39;;;;;;;;;;;;;;;28.06;25.56;100886.25;5017008;28;1212;-31
2022/12/08 08:33:05;;;;;;;;;;;;;;;27.82;26.08;100899.03;5016872;28;1171;-28
2022/12/08 08:35:30;;;;;;;;;;;;;;;27.89;26.20;100896.44;5017245;28;1100;-28
2022/12/08 08:37:56;;;;;;;;;;;;;;;28.24;25.71;100893.19;5016606;28;1188;-27
2022/12/08 08:40:22;;;;;;;;;;;;;;;28.20;25.87;100891.84;5014622;28;936;-28
2022/12/08 08:42:47;;;;;;;;;;;;;;;28.22;25.82;100890.66;5016926;28;1219;-30
2022/12/08 08:45:12;;;;;;;;;;;;;;;27.73;26.59;100892.00;5016752;28;1216;-29
2022/12/08 08:47:38;;;;;;;;;;;;;;;27.65;26.75;100895.59;5016388;28;1191;-29
2022/12/08 08:50:03;;;;;;;;;;;;;;;27.89;26.24;100891.03;5017110;28;1901;-29
2022/12/08 08:52:29;;;;;;;;;;;;;;;28.08;26.34;100888.78;5015997;28;900;-28
2022/12/08 08:54:54;;;;;;;;;;;;;;;28.24;25.25;100888.59;5016762;28;1211;-29
2022/12/08 08:57:19;;;;;;;;;;;;;;;28.02;25.59;100884.97;5016793;28;1113;-30
2022/12/08 08:59:44;;;;;;;;;;;;;;;28.59;25.42;100879.88;5016513;28;1128;-28
2022/12/08 09:02:14;;;;;;;;;;;;;;;28.30;25.18;100881.59;5016675;28;1160;-27
2022/12/08 09:04:40;;;;;;;;;;;;;;;28.37;25.62;100873.59;5006263;28;1164;-27
2022/12/08 09:07:05;;;;;;;;;;;;;;;28.79;25.18;100871.19;5014013;28;1235;-29
2022/12/08 09:09:30;;;;;;;;;;;;;;;28.67;25.29;100857.31;5015981;28;1898;-27
2022/12/08 09:11:56;;;;;;;;;;;;;;;28.83;25.30;100863.50;5016755;28;1144;-28
2022/12/08 09:14:22;;;;;;;;;;;;;;;28.54;24.86;100849.03;5016724;28;917;-29
2022/12/08 09:16:47;;;;;;;;;;;;;;;28.27;25.57;100854.91;5005429;28;1202;-29
2022/12/08 09:19:13;;;;;;;;;;;;;;;28.54;25.49;100874.22;5015950;28;1132;-29
2022/12/08 09:21:38;;;;;;;;;;;;;;;28.80;25.13;100872.00;5016642;28;1203;-30
2022/12/08 09:24:03;;;;;;;;;;;;;;;28.91;25.03;100857.94;5016121;28;1116;-28
2022/12/08 09:26:29;;;;;;;;;;;;;;;28.65;24.80;100851.22;5016476;28;1184;-27
2022/12/08 09:28:54;;;;;;;;;;;;;;;28.33;25.10;100839.81;5015650;28;1968;-30
2022/12/08 09:31:20;;;;;;;;;;;;;;;28.62;25.50;100845.34;5016304;28;1258;-29
2022/12/08 09:33:46;;;;;;;;;;;;;;;28.76;25.28;100833.63;5016545;28;1136;-28
2022/12/08 09:36:11;;;;;;;;;;;;;;;28.73;24.82;100834.03;5018634;28;1132;-30
2022/12/08 09:38:37;;;;;;;;;;;;;;;28.32;25.17;100844.38;5019913;28;1223;-27
2022/12/08 09:41:03;;;;;;;;;;;;;;;28.49;25.59;100838.78;5008630;28;1120;-30
2022/12/08 09:43:36;;;;;;;;;;;;;;;28.67;25.46;100835.66;5017784;28;1192;-29
2022/12/08 09:46:03;;;;;;;;;;;;;;;27.37;26.84;100829.50;5018749;28;1164;-29
2022/12/08 09:48:30;;;;;;;;;;;;;;;26.47;28.34;100819.16;5019728;28;1903;-31
2022/12/08 09:50:56;;;;;;;;;;;;;;;26.12;29.04;100816.75;5018153;28;1200;-27
2022/12/08 09:53:24;;;;;;;;;;;;;;;25.74;29.66;100825.44;5017084;28;1156;-28
2022/12/08 09:55:50;;;;;;;;;;;;;;;25.70;29.79;100813.34;5019110;28;1116;-27
2022/12/08 09:58:26;;;;;;;;;;;;;;;25.53;30.03;100821.41;5019675;28;1149;-30
2022/12/08 10:00:52;;;;;;;;;;;;;;;25.49;30.26;100827.31;5018550;28;1136;-28
2022/12/08 10:03:17;;;;;;;;;;;;;;;25.26;30.22;100819.91;5020001;28;1124;-29
2022/12/08 10:05:48;;;;;;;;;;;;;;;25.06;30.39;100820.25;5018413;28;1124;-27
2022/12/08 10:08:14;;;;;;;;;;;;;;;25.06;30.41;100820.25;5019738;28;1148;-30
2022/12/08 10:10:46;;;;;;;;;;;;;;;25.05;30.72;100816.72;5019616;28;1969;-27
2022/12/08 10:13:24;;;;;;;;;;;;;;;24.94;30.99;100825.97;5019435;28;1112;-28
2022/12/08 10:15:56;;;;;;;;;;;;;;;24.90;31.18;100829.13;5018051;28;1252;-27
2022/12/08 10:18:25;;;;;;;;;;;;;;;24.89;31.22;100822.06;5011773;28;879;-29
2022/12/08 10:20:50;;;;;;;;;;;;;;;25.55;30.33;100810.47;5017635;28;1128;-29
2022/12/08 10:23:34;;;;;;;;;;;;;;;27.16;27.94;100816.66;5019084;28;1160;-29
2022/12/08 10:26:01;;;;;;;;;;;;;;;28.73;25.34;100810.50;5019461;28;1175;-27
2022/12/08 10:28:26;;;;;;;;;;;;;;;27.99;25.08;100802.34;5016021;28;1918;-30
2022/12/08 10:30:51;;;;;;;;;;;;;;;28.14;26.01;100803.34;5011921;28;1132;-28
2022/12/08 10:33:18;;;;;;;;;;;;;;;28.65;24.80;100801.66;5019086;28;1207;-30
2022/12/08 10:35:48;;;;;;;;;;;;;;;28.87;24.49;100796.25;5019295;28;1156;-29
2022/12/08 10:38:16;;;;;;;;;;;;;;;29.26;24.26;100786.81;5018733;28;1195;-27
2022/12/08 10:40:41;;;;;;;;;;;;;;;29.20;24.01;100785.75;5014532;28;1156;-30
2022/12/08 10:43:11;;;;;;;;;;;;;;;29.16;23.99;100787.16;5013188;28;1422;-29
2022/12/08 10:45:37;;;;;;;;;;;;;;;29.11;24.50;100789.66;5017467;28;1231;-30
2022/12/08 10:48:03;;;;;;;;;;;;;;;29.17;24.20;100791.56;5019027;28;1145;-28
2022/12/08 10:50:35;;;;;;;;;;;;;;;29.37;24.15;100796.28;5017986;28;1957;-26
2022/12/08 10:53:06;;;;;;;;;;;;;;;29.51;23.91;100791.78;5011859;28;1108;-28
2022/12/08 10:55:39;;;;;;;;;;;;;;;29.21;24.44;100792.03;5004983;28;1141;-26
2022/12/08 10:58:04;;;;;;;;;;;;;;;29.57;23.95;100788.31;5018918;28;1199;-25
2022/12/08 11:00:29;;;;;;;;;;;;;;;29.78;23.79;100777.63;5018733;28;1200;-29
2022/12/08 11:02:56;;;;;;;;;;;;;;;29.88;23.66;100772.63;5018423;28;1185;-28
2022/12/08 11:05:22;;;;;;;;;;;;;;;29.91;23.73;100768.69;5013117;28;1536;-26
2022/12/08 11:07:51;;;;;;;;;;;;;;;29.52;24.26;100763.66;5017305;28;1203;-26
2022/12/08 11:10:16;;;;;;;;;;;;;;;29.09;24.79;100760.03;5017073;28;1894;-26
2022/12/08 11:12:42;;;;;;;;;;;;;;;29.53;24.27;100759.91;5016993;28;1183;-28
2022/12/08 11:15:07;;;;;;;;;;;;;;;29.43;24.27;100748.59;5017186;28;1219;-27
2022/12/08 11:17:34;;;;;;;;;;;;;;;29.14;24.94;100754.03;5016408;28;1370;-29
2022/12/08 11:20:03;;;;;;;;;;;;;;;29.14;24.84;100751.34;5018139;28;1132;-27
2022/12/08 11:22:28;;;;;;;;;;;;;;;29.61;24.22;100748.13;5017786;28;1164;-28
2022/12/08 11:25:06;;;;;;;;;;;;;;;29.31;24.82;100751.03;5018334;28;1219;-27
2022/12/08 11:27:31;;;;;;;;;;;;;;;29.42;24.46;100749.63;5018360;28;1171;-29
2022/12/08 11:29:56;;;;;;;;;;;;;;;29.02;24.39;100752.88;5011657;28;1910;-26
2022/12/08 11:32:22;;;;;;;;;;;;;;;29.17;24.63;100744.66;5018261;28;1117;-29
2022/12/08 11:35:07;;;;;;;;;;;;;;;29.34;24.06;100750.63;5017845;28;1125;-27
2022/12/08 11:37:39;;;;;;;;;;;;;;;29.56;24.32;100745.97;5017875;28;1523;-28
2022/12/08 11:40:07;;;;;;;;;;;;;;;29.37;24.42;100743.97;5018212;28;1152;-29
2022/12/08 11:42:45;;;;;;;;;;;;;;;29.57;24.06;100744.94;5016653;28;962;-29
2022/12/08 11:45:11;;;;;;;;;;;;;;;29.67;24.08;100735.63;5016543;28;1268;-28
2022/12/08 11:47:41;;;;;;;;;;;;;;;29.49;24.43;100736.13;5016874;28;1148;-29
2022/12/08 11:50:15;;;;;;;;;;;;;;;29.86;23.87;100731.34;5016400;28;1899;-30
2022/12/08 11:52:50;;;;;;;;;;;;;;;29.57;24.30;100730.53;5017592;28;1116;-28
2022/12/08 11:55:15;;;;;;;;;;;;;;;29.32;24.47;100723.75;5017589;28;1109;-28
2022/12/08 11:57:40;;;;;;;;;;;;;;;29.89;23.99;100728.22;5017502;28;1524;-32
2022/12/08 12:00:08;;;;;;;;;;;;;;;29.74;24.19;100728.38;5018085;28;1133;-28
2022/12/08 12:02:34;;;;;;;;;;;;;;;29.63;24.29;100726.25;5016470;28;1157;-28
2022/12/08 12:04:59;;;;;;;;;;;;;;;29.45;23.81;100727.56;5015803;28;994;-26
2022/12/08 12:07:39;;;;;;;;;;;;;;;29.24;24.61;100723.91;5017786;28;1124;-29
2022/12/08 12:10:08;;;;;;;;;;;;;;;29.28;24.92;100735.19;5017562;28;1906;-29
2022/12/08 12:12:43;;;;;;;;;;;;;;;29.06;24.49;100729.81;5017488;28;1136;-26
2022/12/08 12:15:14;;;;;;;;;;;;;;;29.14;24.65;100734.22;5017310;28;1176;-27
2022/12/08 12:17:51;;;;;;;;;;;;;;;29.39;24.24;100731.91;5016817;28;1289;-26
2022/12/08 12:20:18;;;;;;;;;;;;;;;29.28;24.34;100732.47;5017323;28;1179;-26
2022/12/08 12:22:45;;;;;;;;;;;;;;;29.43;24.27;100733.16;5016559;28;1140;-26
2022/12/08 12:25:20;;;;;;;;;;;;;;;29.53;24.15;100726.56;5008227;28;1143;-26
2022/12/08 12:27:47;;;;;;;;;;;;;;;29.86;23.83;100711.53;5011047;28;1208;-30
2022/12/08 12:30:23;;;;;;;;;;;;;;;29.64;24.27;100719.75;5011458;28;1914;-27
2022/12/08 12:32:51;;;;;;;;;;;;;;;30.02;23.96;100716.59;5015773;28;1122;-27
2022/12/08 12:35:21;;;;;;;;;;;;;;;29.89;23.99;100716.53;5016901;28;1143;-29
2022/12/08 12:37:47;;;;;;;;;;;;;;;29.39;24.68;100715.66;5015743;28;1179;-26
2022/12/08 12:40:15;;;;;;;;;;;;;;;28.84;24.65;100714.38;5015951;28;1175;-28
2022/12/08 12:42:41;;;;;;;;;;;;;;;28.44;25.11;100717.59;5014236;28;890;-27
2022/12/08 12:45:10;;;;;;;;;;;;;;;28.50;25.56;100715.13;5016969;28;1184;-28
2022/12/08 12:47:48;;;;;;;;;;;;;;;28.44;25.22;100714.06;5017045;28;1108;-29
2022/12/08 12:50:14;;;;;;;;;;;;;;;28.18;25.75;100713.53;5015559;28;1898;-30